Time;durP1;ratioP1;P1;durP2;ratioP2;P2;SDS_P1;SDS_P2;PMS_P1;PMS_P2;Temp;Humidity;BMP_temperature;BMP_pressure;BME280_temperature;BME280_humidity;BME280_pressure;Samples;Min_cycle;Max_cycle;Signal;HPM_P1;HPM_P2
2022/06/23 00:01:16;;;;;;;3.17;2.75;;;;;23.80;101151.00;;;;5046883;28;20412;-76
2022/06/23 00:03:44;;;;;;;3.78;2.85;;;;;23.80;101146.00;;;;5047370;28;20657;-76
2022/06/23 00:06:31;;;;;;;4.40;2.35;;;;;23.60;101142.00;;;;5039511;28;20206;-76
2022/06/23 00:08:58;;;;;;;4.47;2.90;;;;;23.70;101144.00;;;;5044170;28;20199;-75
2022/06/23 00:11:28;;;;;;;4.43;3.00;;;;;23.60;101139.00;;;;5048095;28;20196;-76
2022/06/23 00:14:14;;;;;;;4.50;3.15;;;;;23.50;101134.00;;;;5029795;28;20804;-76
2022/06/23 00:16:43;;;;;;;3.63;2.88;;;;;23.60;101132.00;;;;5045314;28;20687;-76
2022/06/23 00:19:13;;;;;;;2.95;2.40;;;;;23.50;101128.00;;;;5047475;28;20199;-76
2022/06/23 00:21:45;;;;;;;4.35;3.00;;;;;23.50;101127.00;;;;5048053;28;20202;-76
2022/06/23 00:24:19;;;;;;;4.82;2.83;;;;;23.40;101126.00;;;;5047089;28;20215;-76
2022/06/23 00:26:49;;;;;;;6.45;3.42;;;;;23.40;101130.00;;;;5045848;28;20225;-76
2022/06/23 00:29:19;;;;;;;5.40;2.90;;;;;23.40;101133.00;;;;5043668;28;20758;-76
2022/06/23 00:31:55;;;;;;;5.63;3.33;;;;;23.40;101133.00;;;;5037884;28;20202;-76
2022/06/23 00:34:25;;;;;;;6.07;3.10;;;;;23.40;101134.00;;;;5047856;28;20219;-76
2022/06/23 00:36:54;;;;;;;7.18;3.47;;;;;23.30;101128.00;;;;5046069;28;20206;-76
2022/06/23 00:39:26;;;;;;;8.68;2.83;;;;;23.30;101134.00;;;;5044633;28;20229;-76
2022/06/23 00:41:55;;;;;;;4.05;3.17;;;;;23.30;101139.00;;;;5045370;28;20203;-77
2022/06/23 00:44:30;;;;;;;8.10;3.00;;;;;23.20;101133.00;;;;5045167;28;20232;-77
2022/06/23 00:47:02;;;;;;;3.80;3.30;;;;;23.20;101133.00;;;;5047503;28;20199;-77
2022/06/23 00:49:35;;;;;;;5.68;3.30;;;;;23.20;101132.00;;;;5045297;28;20658;-77
2022/06/23 00:52:15;;;;;;;2.92;2.47;;;;;23.10;101126.00;;;;5044850;28;20679;-77
2022/06/23 00:54:47;;;;;;;4.63;3.10;;;;;23.20;101124.00;;;;5045892;28;20234;-77
2022/06/23 00:57:24;;;;;;;2.88;2.53;;;;;23.20;101114.00;;;;5044269;28;20665;-77
2022/06/23 00:59:56;;;;;;;4.07;2.55;;;;;23.20;101113.00;;;;5044390;28;20203;-77
2022/06/23 01:02:28;;;;;;;3.53;2.83;;;;;23.10;101117.00;;;;5046933;28;20196;-77
2022/06/23 01:05:01;;;;;;;4.32;3.05;;;;;23.10;101116.00;;;;5034552;28;20202;-77
2022/06/23 01:07:39;;;;;;;3.33;2.53;;;;;23.10;101113.00;;;;5045629;28;20196;-77
2022/06/23 01:10:14;;;;;;;5.68;3.20;;;;;23.10;101109.00;;;;5047213;28;20217;-78
2022/06/23 01:12:47;;;;;;;5.47;3.40;;;;;23.00;101113.00;;;;5046003;28;20561;-77
2022/06/23 01:15:26;;;;;;;4.75;3.00;;;;;23.00;101117.00;;;;5045491;28;20219;-76
2022/06/23 01:17:58;;;;;;;4.97;3.10;;;;;23.00;101116.00;;;;5043736;28;20642;-77
2022/06/23 01:20:36;;;;;;;4.93;3.13;;;;;22.90;101113.00;;;;5041780;28;20200;-77
2022/06/23 01:23:35;;;;;;;4.70;3.13;;;;;22.80;101115.00;;;;5034597;28;20692;-77
2022/06/23 01:26:32;;;;;;;3.13;2.50;;;;;22.80;101121.00;;;;5044343;28;20191;-77
2022/06/23 01:29:07;;;;;;;3.35;3.05;;;;;22.80;101122.00;;;;5045514;28;20689;-78
2022/06/23 01:31:42;;;;;;;3.20;2.78;;;;;22.80;101111.00;;;;5045709;28;20199;-77
2022/06/23 01:34:18;;;;;;;3.97;2.60;;;;;22.80;101118.00;;;;5046475;28;21054;-77
2022/06/23 01:36:50;;;;;;;4.43;2.80;;;;;22.80;101123.00;;;;5045352;28;20199;-77
2022/06/23 01:39:25;;;;;;;4.25;2.70;;;;;22.70;101119.00;;;;5034863;28;20192;-77
2022/06/23 01:41:58;;;;;;;4.95;2.75;;;;;22.80;101125.00;;;;5046398;28;20203;-77
2022/06/23 01:44:45;;;;;;;5.00;2.90;;;;;22.70;101123.00;;;;5045973;28;22792;-79
2022/06/23 01:47:20;;;;;;;5.18;3.10;;;;;22.70;101118.00;;;;5043584;28;20299;-77
2022/06/23 01:49:51;;;;;;;5.10;3.67;;;;;22.70;101119.00;;;;5049732;28;20198;-77
2022/06/23 01:52:20;;;;;;;4.07;3.00;;;;;22.70;101120.00;;;;5048987;28;20203;-77
2022/06/23 01:54:53;;;;;;;4.10;2.60;;;;;22.70;101114.00;;;;5043189;28;20574;-76
2022/06/23 01:57:27;;;;;;;4.75;2.92;;;;;22.60;101094.00;;;;5046933;28;20214;-77
2022/06/23 02:00:03;;;;;;;4.53;3.22;;;;;22.60;101109.00;;;;5035621;28;20202;-76
2022/06/23 02:02:48;;;;;;;6.55;3.28;;;;;22.50;101109.00;;;;5049044;28;20243;-77
2022/06/23 02:05:25;;;;;;;2.85;2.45;;;;;22.60;101101.00;;;;5048519;28;20188;-77
2022/06/23 02:07:57;;;;;;;6.30;3.85;;;;;22.60;101096.00;;;;5050255;28;20198;-76
2022/06/23 02:10:32;;;;;;;4.75;3.15;;;;;22.50;101096.00;;;;5049497;28;20203;-76
2022/06/23 02:13:11;;;;;;;5.70;2.92;;;;;22.50;101094.00;;;;5048651;28;20199;-75
2022/06/23 02:15:55;;;;;;;6.13;3.03;;;;;22.50;101092.00;;;;5050367;28;20219;-76
2022/06/23 02:18:31;;;;;;;3.53;3.08;;;;;22.50;101091.00;;;;5049222;28;20203;-75
2022/06/23 02:21:19;;;;;;;7.25;3.00;;;;;22.40;101087.00;;;;5042169;28;20188;-76
2022/06/23 02:23:53;;;;;;;5.93;3.30;;;;;22.50;101092.00;;;;5050488;28;20203;-76
2022/06/23 02:26:25;;;;;;;3.63;3.15;;;;;22.50;101089.00;;;;5050572;28;20195;-76
2022/06/23 02:29:01;;;;;;;4.82;3.22;;;;;22.40;101087.00;;;;5042013;28;20232;-76
2022/06/23 02:31:39;;;;;;;7.43;4.20;;;;;22.40;101105.00;;;;5050063;28;20223;-76
2022/06/23 02:34:12;;;;;;;5.30;3.30;;;;;22.50;101100.00;;;;5050187;28;20587;-76
2022/06/23 02:37:02;;;;;;;6.35;3.25;;;;;22.40;101092.00;;;;5049395;28;20207;-75
2022/06/23 02:39:36;;;;;;;4.75;3.60;;;;;22.40;101092.00;;;;5050092;28;20188;-76
2022/06/23 02:42:14;;;;;;;6.80;3.78;;;;;22.40;101099.00;;;;5049894;28;20222;-75
2022/06/23 02:45:09;;;;;;;4.85;3.45;;;;;22.30;101102.00;;;;5050446;28;20218;-76
2022/06/23 02:47:56;;;;;;;5.47;3.63;;;;;22.30;101093.00;;;;5048444;28;20204;-76
2022/06/23 02:50:43;;;;;;;5.40;3.25;;;;;22.30;101089.00;;;;5048689;28;20192;-76
2022/06/23 02:53:41;;;;;;;5.55;3.80;;;;;22.30;101096.00;;;;5051693;28;21017;-76
2022/06/23 02:56:30;;;;;;;5.13;3.50;;;;;22.30;101093.00;;;;5046714;28;20215;-76
2022/06/23 02:59:05;;;;;;;5.32;3.88;;;;;22.30;101089.00;;;;5047986;28;20188;-76
2022/06/23 03:01:39;;;;;;;5.00;3.35;;;;;22.30;101083.00;;;;5047957;28;20223;-76
2022/06/23 03:04:16;;;;;;;6.03;3.20;;;;;22.20;101082.00;;;;5054777;28;20199;-76
2022/06/23 03:06:49;;;;;;;5.88;3.63;;;;;22.20;101084.00;;;;5051707;28;20225;-76
2022/06/23 03:09:21;;;;;;;4.82;3.28;;;;;22.20;101082.00;;;;5049311;28;20195;-76
2022/06/23 03:11:54;;;;;;;4.60;3.78;;;;;22.20;101077.00;;;;5049052;28;20207;-76
2022/06/23 03:14:32;;;;;;;6.20;3.83;;;;;22.20;101084.00;;;;5049680;28;20661;-76
2022/06/23 03:17:04;;;;;;;7.88;3.90;;;;;22.20;101078.00;;;;5049610;28;20195;-76
2022/06/23 03:19:37;;;;;;;6.97;3.80;;;;;22.10;101068.00;;;;5043330;28;20338;-77
2022/06/23 03:22:10;;;;;;;3.95;3.28;;;;;22.10;101072.00;;;;5042496;28;20192;-76
2022/06/23 03:24:49;;;;;;;4.72;4.00;;;;;22.10;101071.00;;;;5048904;28;20318;-76
2022/06/23 03:27:23;;;;;;;4.32;3.53;;;;;22.00;101067.00;;;;5042232;28;20662;-76
2022/06/23 03:29:56;;;;;;;6.97;3.90;;;;;22.00;101070.00;;;;5039580;28;20281;-76
2022/06/23 03:32:29;;;;;;;4.28;2.97;;;;;22.00;101073.00;;;;5034896;28;20207;-76
2022/06/23 03:35:04;;;;;;;6.70;4.15;;;;;22.00;101078.00;;;;5049048;28;20216;-76
2022/06/23 03:37:43;;;;;;;8.30;3.75;;;;;22.00;101072.00;;;;5036483;28;20192;-76
2022/06/23 03:43:13;;;;;;;6.00;4.55;;;;;21.90;101061.00;;;;5047824;28;20238;-75
2022/06/23 03:45:46;;;;;;;4.15;3.75;;;;;21.90;101058.00;;;;5047467;28;20202;-76
2022/06/23 03:48:17;;;;;;;6.55;4.10;;;;;21.90;101049.00;;;;5047830;28;20256;-76
2022/06/23 03:50:51;;;;;;;7.57;3.83;;;;;21.90;101047.00;;;;5047388;28;20673;-75
2022/06/23 03:53:22;;;;;;;5.35;4.13;;;;;21.90;101053.00;;;;5044530;28;20204;-76
2022/06/23 03:55:54;;;;;;;5.03;3.33;;;;;21.90;101047.00;;;;5046744;28;20219;-76
2022/06/23 03:58:30;;;;;;;5.13;4.20;;;;;21.80;101049.00;;;;5042002;28;20210;-76
2022/06/23 04:01:04;;;;;;;5.22;4.68;;;;;21.90;101055.00;;;;5048637;28;20199;-76
2022/06/23 04:03:37;;;;;;;4.57;3.65;;;;;21.90;101052.00;;;;5046056;28;20195;-76
2022/06/23 04:06:22;;;;;;;4.63;4.18;;;;;21.80;101051.00;;;;5049134;28;20225;-76
2022/06/23 04:09:05;;;;;;;5.72;3.85;;;;;21.80;101042.00;;;;5048272;28;20207;-76
2022/06/23 04:11:44;;;;;;;5.05;4.18;;;;;21.90;101053.00;;;;5042808;28;20202;-76
2022/06/23 04:14:22;;;;;;;5.07;3.75;;;;;21.90;101047.00;;;;5047303;28;20188;-75
2022/06/23 04:16:54;;;;;;;6.55;4.28;;;;;21.90;101046.00;;;;5047574;28;20204;-76
2022/06/23 04:19:24;;;;;;;5.78;3.72;;;;;21.90;101041.00;;;;5046250;28;20199;-76
2022/06/23 04:22:04;;;;;;;7.30;4.10;;;;;21.90;101046.00;;;;5041946;28;20207;-77
2022/06/23 04:24:33;;;;;;;5.00;3.92;;;;;22.00;101037.00;;;;5047632;28;20212;-77
2022/06/23 04:27:09;;;;;;;4.72;3.63;;;;;22.00;101028.00;;;;5046422;28;20214;-76
2022/06/23 04:29:39;;;;;;;4.60;3.95;;;;;22.10;101020.00;;;;5044451;28;20199;-76
2022/06/23 04:32:11;;;;;;;4.28;3.83;;;;;22.10;101030.00;;;;5046405;28;20191;-75
2022/06/23 04:34:50;;;;;;;4.60;4.15;;;;;22.00;101034.00;;;;5045729;28;20203;-77
2022/06/23 04:37:31;;;;;;;5.95;4.03;;;;;22.10;101033.00;;;;5042295;28;20199;-77
2022/06/23 04:40:17;;;;;;;3.80;3.50;;;;;22.10;101034.00;;;;5046841;28;20199;-78
2022/06/23 04:42:53;;;;;;;5.72;4.28;;;;;22.10;101040.00;;;;5047687;28;20736;-77
2022/06/23 04:45:37;;;;;;;6.28;4.65;;;;;22.20;101041.00;;;;5035587;28;20297;-77
2022/06/23 04:48:11;;;;;;;8.20;4.60;;;;;22.20;101040.00;;;;5028041;28;20283;-78
2022/06/23 04:50:46;;;;;;;6.97;4.47;;;;;22.20;101047.00;;;;5036963;28;20203;-77
2022/06/23 04:53:22;;;;;;;7.20;3.90;;;;;22.30;101046.00;;;;5048178;28;20200;-77
2022/06/23 04:56:02;;;;;;;6.30;4.35;;;;;22.30;101045.00;;;;5046109;28;20226;-77
2022/06/23 04:58:30;;;;;;;5.57;4.63;;;;;22.40;101039.00;;;;5038811;28;20202;-77
2022/06/23 05:00:57;;;;;;;6.43;4.07;;;;;22.50;101048.00;;;;5046744;28;20195;-76
2022/06/23 05:03:31;;;;;;;4.47;4.07;;;;;22.50;101049.00;;;;5048132;28;20203;-76
2022/06/23 05:06:03;;;;;;;7.18;3.97;;;;;22.50;101045.00;;;;5044012;28;20188;-76
2022/06/23 05:08:37;;;;;;;5.60;3.65;;;;;22.60;101041.00;;;;5046631;28;20206;-76
2022/06/23 05:11:10;;;;;;;5.72;4.45;;;;;22.60;101043.00;;;;5047793;28;20192;-76
2022/06/23 05:13:42;;;;;;;7.82;5.00;;;;;22.70;101053.00;;;;5047453;28;20207;-76
2022/06/23 05:16:13;;;;;;;7.18;3.80;;;;;22.70;101049.00;;;;5047484;28;20219;-77
2022/06/23 05:18:44;;;;;;;10.02;4.43;;;;;22.80;101058.00;;;;5045149;28;20201;-76
2022/06/23 05:21:18;;;;;;;6.45;4.20;;;;;22.80;101053.00;;;;5046732;28;20852;-76
2022/06/23 05:23:52;;;;;;;6.30;4.07;;;;;22.90;101043.00;;;;5048407;28;20733;-76
2022/06/23 05:26:25;;;;;;;8.30;4.50;;;;;23.00;101046.00;;;;5051843;28;20188;-78
2022/06/23 05:28:58;;;;;;;5.22;4.38;;;;;23.10;101049.00;;;;5050366;28;20702;-77
2022/06/23 05:31:30;;;;;;;8.63;4.80;;;;;23.10;101039.00;;;;5051443;28;20573;-77
2022/06/23 05:34:02;;;;;;;7.07;4.70;;;;;23.20;101040.00;;;;5048834;28;20297;-77
2022/06/23 05:36:36;;;;;;;5.18;3.47;;;;;23.30;101052.00;;;;5048456;28;20230;-76
2022/06/23 05:39:13;;;;;;;6.85;4.22;;;;;23.40;101049.00;;;;5050274;28;20202;-76
2022/06/23 05:41:44;;;;;;;5.43;4.13;;;;;23.40;101047.00;;;;5050968;28;20203;-77
2022/06/23 05:44:18;;;;;;;7.97;4.15;;;;;23.50;101042.00;;;;5047572;28;20227;-78
2022/06/23 05:46:48;;;;;;;4.55;3.65;;;;;23.60;101041.00;;;;5046387;28;20204;-78
2022/06/23 05:49:20;;;;;;;5.53;4.35;;;;;23.60;101039.00;;;;5048183;28;20207;-77
2022/06/23 05:51:54;;;;;;;5.03;3.78;;;;;23.70;101052.00;;;;5049119;28;20290;-77
2022/06/23 05:54:28;;;;;;;3.95;3.55;;;;;23.80;101043.00;;;;5031781;28;20201;-77
2022/06/23 05:57:03;;;;;;;3.78;3.38;;;;;23.90;101041.00;;;;5042492;28;20222;-77
2022/06/23 05:59:36;;;;;;;6.28;3.15;;;;;24.00;101048.00;;;;5050173;28;20199;-77
2022/06/23 06:02:10;;;;;;;4.85;3.40;;;;;24.10;101050.00;;;;5052653;28;20208;-78
2022/06/23 06:04:50;;;;;;;8.18;3.70;;;;;24.10;101055.00;;;;5053841;28;20249;-79
2022/06/23 06:07:19;;;;;;;6.70;4.13;;;;;24.20;101056.00;;;;5048323;28;20199;-78
2022/06/23 06:09:49;;;;;;;4.65;3.55;;;;;24.30;101048.00;;;;5045473;28;20249;-81
2022/06/23 06:12:20;;;;;;;4.22;3.80;;;;;24.40;101045.00;;;;5048149;28;20207;-82
2022/06/23 06:15:00;;;;;;;3.83;3.53;;;;;24.50;101043.00;;;;5048400;28;20204;-80
2022/06/23 06:17:31;;;;;;;3.85;3.28;;;;;24.60;101037.00;;;;5047081;28;20210;-80
2022/06/23 06:20:05;;;;;;;4.53;3.03;;;;;24.70;101048.00;;;;5045362;28;20197;-80
2022/06/23 06:22:44;;;;;;;6.90;3.45;;;;;24.80;101042.00;;;;5050318;28;20215;-78
2022/06/23 06:25:22;;;;;;;3.67;3.03;;;;;24.90;101047.00;;;;5045076;28;20223;-77
2022/06/23 06:27:50;;;;;;;4.18;3.25;;;;;25.00;101041.00;;;;5046370;28;20199;-78
2022/06/23 06:30:19;;;;;;;4.47;2.72;;;;;25.10;101031.00;;;;5051102;28;20218;-78
2022/06/23 06:32:47;;;;;;;4.68;3.35;;;;;25.20;101026.00;;;;5051400;28;20192;-78
2022/06/23 06:35:26;;;;;;;4.78;2.90;;;;;25.30;101023.00;;;;5051991;28;20258;-77
2022/06/23 06:37:56;;;;;;;4.15;2.90;;;;;25.50;101035.00;;;;5051469;28;20207;-77
2022/06/23 06:40:25;;;;;;;4.00;2.85;;;;;25.50;101028.00;;;;5048740;28;20211;-78
2022/06/23 06:42:56;;;;;;;4.68;2.85;;;;;25.60;101034.00;;;;5049477;28;20200;-78
2022/06/23 06:45:27;;;;;;;3.72;3.00;;;;;25.70;101037.00;;;;5041606;28;20204;-77
2022/06/23 06:47:55;;;;;;;4.85;2.35;;;;;25.90;101035.00;;;;5048666;28;20214;-77
2022/06/23 06:50:35;;;;;;;3.95;2.63;;;;;25.90;101033.00;;;;5046999;28;20214;-78
2022/06/23 06:53:07;;;;;;;5.38;2.63;;;;;26.10;101028.00;;;;5051857;28;20207;-78
2022/06/23 06:55:42;;;;;;;4.88;2.63;;;;;26.20;101037.00;;;;5050045;28;20234;-78
2022/06/23 06:58:16;;;;;;;2.83;2.42;;;;;26.30;101047.00;;;;5050631;28;20199;-78
2022/06/23 07:00:50;;;;;;;3.47;3.13;;;;;26.40;101037.00;;;;5048244;28;20606;-78
2022/06/23 07:03:19;;;;;;;3.55;2.25;;;;;26.60;101043.00;;;;5049146;28;20215;-78
2022/06/23 07:05:54;;;;;;;3.97;2.38;;;;;26.60;101037.00;;;;5040189;28;20212;-77
2022/06/23 07:08:26;;;;;;;2.70;2.47;;;;;26.80;101034.00;;;;5051206;28;20206;-78
2022/06/23 07:10:58;;;;;;;4.43;2.65;;;;;26.90;101033.00;;;;5051607;28;20200;-78
2022/06/23 07:13:32;;;;;;;3.47;2.55;;;;;27.00;101032.00;;;;5050789;28;20215;-78
2022/06/23 07:16:04;;;;;;;3.70;2.58;;;;;27.10;101033.00;;;;5046592;28;20216;-78
2022/06/23 07:18:36;;;;;;;4.28;2.40;;;;;27.30;101039.00;;;;5045793;28;20207;-78
2022/06/23 07:21:10;;;;;;;5.97;2.80;;;;;27.40;101043.00;;;;5044954;28;20202;-79
2022/06/23 07:23:44;;;;;;;2.42;2.17;;;;;27.50;101043.00;;;;5045788;28;20260;-79
2022/06/23 07:26:32;;;;;;;2.70;2.50;;;;;27.50;101040.00;;;;5046141;28;20222;-78
2022/06/23 07:29:07;;;;;;;4.22;2.53;;;;;27.70;101042.00;;;;5047689;28;20565;-79
2022/06/23 07:31:46;;;;;;;2.35;2.15;;;;;27.80;101036.00;;;;5046447;28;21083;-79
2022/06/23 07:34:16;;;;;;;3.30;2.30;;;;;28.00;101033.00;;;;5042962;28;20203;-79
2022/06/23 07:36:50;;;;;;;2.20;2.00;;;;;28.10;101030.00;;;;5037362;28;20227;-78
2022/06/23 07:39:21;;;;;;;2.80;2.50;;;;;28.20;101029.00;;;;5047809;28;20207;-79
2022/06/23 07:41:57;;;;;;;2.78;2.22;;;;;28.30;101029.00;;;;5043089;28;20195;-80
2022/06/23 07:44:29;;;;;;;4.00;2.20;;;;;28.50;101034.00;;;;5047414;28;20281;-78
2022/06/23 07:46:56;;;;;;;2.35;1.95;;;;;28.60;101029.00;;;;5045586;28;20206;-79
2022/06/23 07:49:25;;;;;;;2.90;2.28;;;;;28.70;101032.00;;;;5047579;28;20207;-79
2022/06/23 07:51:53;;;;;;;2.78;2.40;;;;;28.90;101029.00;;;;5039043;28;20200;-79
2022/06/23 07:54:21;;;;;;;2.85;2.42;;;;;29.00;101041.00;;;;5046242;28;20208;-79
2022/06/23 07:56:51;;;;;;;3.38;2.80;;;;;29.10;101035.00;;;;5050395;28;20689;-79
2022/06/23 07:59:24;;;;;;;5.18;3.67;;;;;29.20;101046.00;;;;5046764;28;20195;-80
2022/06/23 08:01:58;;;;;;;4.00;2.42;;;;;29.30;101042.00;;;;5046172;28;20720;-80
2022/06/23 08:04:32;;;;;;;4.38;2.38;;;;;29.40;101041.00;;;;5048075;28;20692;-80
2022/06/23 08:07:03;;;;;;;4.55;2.85;;;;;29.50;101044.00;;;;5046312;28;20196;-79
2022/06/23 08:09:34;;;;;;;8.93;2.78;;;;;29.70;101039.00;;;;5042747;28;20210;-81
2022/06/23 08:18:13;;;;;;;5.40;3.70;;;;;30.00;101040.00;;;;4984718;28;20248;-79
2022/06/23 08:20:46;;;;;;;8.75;2.85;;;;;30.10;101047.00;;;;5031998;28;20195;-79
2022/06/23 08:23:16;;;;;;;3.42;2.80;;;;;30.20;101042.00;;;;5042685;28;20214;-79
2022/06/23 08:25:44;;;;;;;4.13;3.38;;;;;30.30;101045.00;;;;5042356;28;20211;-79
2022/06/23 08:28:13;;;;;;;4.85;2.97;;;;;30.40;101046.00;;;;5047086;28;20238;-80
2022/06/23 08:30:41;;;;;;;3.40;3.00;;;;;30.50;101046.00;;;;5047907;28;20677;-78
2022/06/23 08:33:09;;;;;;;3.80;2.78;;;;;30.60;101038.00;;;;5043778;28;20871;-79
2022/06/23 08:35:41;;;;;;;4.82;3.08;;;;;30.70;101038.00;;;;5042552;28;20211;-79
2022/06/23 08:38:12;;;;;;;3.13;2.58;;;;;30.80;101041.00;;;;5044388;28;20227;-81
2022/06/23 08:40:50;;;;;;;5.00;3.08;;;;;30.90;101040.00;;;;5045955;28;20629;-81
2022/06/23 08:43:28;;;;;;;4.15;3.28;;;;;31.00;101038.00;;;;5035457;28;20223;-81
2022/06/23 08:46:04;;;;;;;3.38;2.92;;;;;31.20;101038.00;;;;5027239;28;20684;-81
2022/06/23 08:48:38;;;;;;;6.75;3.22;;;;;31.30;101033.00;;;;5037360;28;20205;-82
2022/06/23 08:51:16;;;;;;;4.10;3.70;;;;;31.30;101034.00;;;;5045770;28;20188;-81
2022/06/23 08:53:55;;;;;;;4.78;4.28;;;;;31.40;101030.00;;;;5040786;28;21079;-80
2022/06/23 08:56:28;;;;;;;8.73;4.00;;;;;31.50;101023.00;;;;5040597;28;20218;-81
2022/06/23 08:59:08;;;;;;;5.30;3.60;;;;;31.60;101024.00;;;;5049266;28;20199;-80
2022/06/23 09:01:43;;;;;;;6.82;3.33;;;;;31.60;101021.00;;;;5031718;28;20199;-78
2022/06/23 09:04:18;;;;;;;5.18;3.92;;;;;31.70;101026.00;;;;5044738;28;21035;-77
2022/06/23 09:06:53;;;;;;;5.43;3.60;;;;;31.80;101031.00;;;;5050504;28;20199;-78
2022/06/23 09:09:29;;;;;;;4.05;3.53;;;;;31.90;101034.00;;;;5054713;28;20661;-78
2022/06/23 09:12:07;;;;;;;4.95;4.18;;;;;31.90;101031.00;;;;5052928;28;20199;-78
2022/06/23 09:15:29;;;;;;;6.65;4.40;;;;;32.00;101027.00;;;;5055672;28;20210;-78
2022/06/23 09:18:24;;;;;;;8.15;4.18;;;;;32.10;101028.00;;;;5041411;28;20304;-77
2022/06/23 09:21:06;;;;;;;5.82;4.07;;;;;32.20;101030.00;;;;5046656;28;20210;-78
2022/06/23 09:23:58;;;;;;;4.97;3.47;;;;;32.30;101028.00;;;;5051647;28;20642;-78
2022/06/23 09:26:37;;;;;;;9.35;3.97;;;;;32.40;101036.00;;;;5044885;28;20210;-77
2022/06/23 09:29:16;;;;;;;5.57;4.65;;;;;32.50;101024.00;;;;5047791;28;20867;-77
2022/06/23 09:31:58;;;;;;;4.85;3.92;;;;;32.60;101025.00;;;;5052529;28;20207;-78
2022/06/23 09:34:40;;;;;;;4.18;3.78;;;;;32.70;101028.00;;;;5053348;28;20195;-78
2022/06/23 09:37:46;;;;;;;4.50;3.85;;;;;32.70;101017.00;;;;5057054;28;20223;-78
2022/06/23 09:40:35;;;;;;;4.82;4.32;;;;;32.90;101018.00;;;;5050324;28;20203;-78
2022/06/23 09:43:29;;;;;;;7.07;3.70;;;;;33.00;101022.00;;;;5045852;28;20223;-77
2022/06/23 09:46:19;;;;;;;6.90;4.45;;;;;33.20;101016.00;;;;5056175;28;20203;-78
2022/06/23 09:49:18;;;;;;;18.27;4.18;;;;;33.30;101011.00;;;;5030322;28;20661;-79
2022/06/23 09:52:21;;;;;;;6.32;4.13;;;;;33.40;101010.00;;;;5044814;28;20195;-79
2022/06/23 09:55:31;;;;;;;6.47;4.40;;;;;33.50;101008.00;;;;5053898;28;20199;-79
2022/06/23 09:58:26;;;;;;;4.65;3.90;;;;;33.60;101012.00;;;;5054188;28;20940;-78
2022/06/23 10:01:08;;;;;;;6.15;3.05;;;;;33.80;101010.00;;;;5050333;28;20199;-78
2022/06/23 10:03:49;;;;;;;6.70;4.07;;;;;33.80;101007.00;;;;5051614;28;20192;-79
2022/06/23 10:06:43;;;;;;;5.43;3.67;;;;;33.90;101001.00;;;;5055356;28;20206;-79
2022/06/23 10:09:24;;;;;;;4.95;3.65;;;;;34.00;101000.00;;;;5038392;28;20211;-80
2022/06/23 10:12:11;;;;;;;4.78;4.15;;;;;34.00;101004.00;;;;5037444;28;20200;-78
2022/06/23 10:15:02;;;;;;;6.63;4.28;;;;;34.10;101003.00;;;;5041858;28;20207;-78
2022/06/23 10:18:00;;;;;;;4.70;3.63;;;;;34.30;101008.00;;;;5051856;28;20218;-78
2022/06/23 10:20:50;;;;;;;5.85;3.55;;;;;34.40;101001.00;;;;5051488;28;20268;-78
2022/06/23 10:23:33;;;;;;;4.30;3.53;;;;;34.50;100997.00;;;;5047671;28;20195;-79
2022/06/23 10:26:16;;;;;;;6.22;3.95;;;;;34.60;101000.00;;;;5041909;28;20263;-79
2022/06/23 10:29:06;;;;;;;7.80;4.03;;;;;34.60;100992.00;;;;5046343;28;20535;-78
2022/06/23 10:31:56;;;;;;;9.68;4.78;;;;;34.70;100987.00;;;;5044972;28;20202;-79
2022/06/23 10:34:36;;;;;;;4.32;3.88;;;;;34.80;100987.00;;;;5034961;28;20199;-79
2022/06/23 10:37:31;;;;;;;6.22;4.38;;;;;34.80;100986.00;;;;5049919;28;20230;-78
2022/06/23 10:40:24;;;;;;;3.55;2.95;;;;;34.80;100983.00;;;;5048000;28;20199;-79
2022/06/23 10:43:14;;;;;;;3.40;3.10;;;;;34.80;100988.00;;;;5043192;28;20211;-79
2022/06/23 10:45:50;;;;;;;10.02;3.72;;;;;35.00;100990.00;;;;5031054;28;20575;-79
2022/06/23 10:48:38;;;;;;;4.10;3.30;;;;;35.00;100985.00;;;;5046383;28;20206;-79
2022/06/23 10:51:22;;;;;;;4.03;3.67;;;;;35.00;100980.00;;;;5048196;28;20206;-79
2022/06/23 10:54:11;;;;;;;6.55;3.40;;;;;35.10;100985.00;;;;5049188;28;20198;-78
2022/06/23 10:56:50;;;;;;;3.80;3.35;;;;;35.10;100974.00;;;;5051695;28;20203;-78
2022/06/23 10:59:35;;;;;;;5.00;3.20;;;;;35.10;100968.00;;;;5048669;28;20195;-79
2022/06/23 11:02:39;;;;;;;7.93;4.03;;;;;35.10;100970.00;;;;5052653;28;20198;-80
2022/06/23 11:05:32;;;;;;;4.78;3.25;;;;;35.20;100964.00;;;;5050251;28;20199;-78
2022/06/23 11:08:13;;;;;;;5.38;3.55;;;;;35.30;100972.00;;;;5038584;28;20214;-79
2022/06/23 11:11:03;;;;;;;4.82;3.20;;;;;35.20;100967.00;;;;5050610;28;20548;-78
2022/06/23 11:13:42;;;;;;;4.50;3.20;;;;;35.30;100965.00;;;;5052392;28;20199;-79
2022/06/23 11:16:20;;;;;;;4.93;3.50;;;;;35.30;100963.00;;;;5041419;28;20211;-76
2022/06/23 11:19:02;;;;;;;4.50;3.50;;;;;35.30;100957.00;;;;5043829;28;20273;-76
2022/06/23 11:21:41;;;;;;;9.27;3.55;;;;;35.40;100956.00;;;;5048653;28;20196;-76
2022/06/23 11:24:19;;;;;;;6.40;3.70;;;;;35.40;100957.00;;;;5048803;28;20220;-76
2022/06/23 11:26:58;;;;;;;7.30;4.15;;;;;35.40;100956.00;;;;5048128;28;20209;-76
2022/06/23 11:29:54;;;;;;;6.15;3.60;;;;;35.30;100956.00;;;;5048472;28;20210;-78
2022/06/23 11:32:32;;;;;;;3.70;3.35;;;;;35.40;100952.00;;;;5043015;28;20570;-76
2022/06/23 11:35:29;;;;;;;4.95;3.00;;;;;35.40;100956.00;;;;5031527;28;20206;-76
2022/06/23 11:38:08;;;;;;;6.90;3.40;;;;;35.50;100948.00;;;;5033664;28;20242;-77
2022/06/23 11:40:50;;;;;;;5.30;3.22;;;;;35.50;100945.00;;;;5047779;28;20210;-77
2022/06/23 11:43:23;;;;;;;5.13;3.83;;;;;35.50;100943.00;;;;5049924;28;20227;-77
2022/06/23 11:46:04;;;;;;;4.82;3.10;;;;;35.50;100945.00;;;;5046199;28;20191;-78
2022/06/23 11:49:07;;;;;;;7.05;3.15;;;;;35.50;100936.00;;;;5047201;28;20199;-77
2022/06/23 11:51:50;;;;;;;5.40;3.42;;;;;35.50;100928.00;;;;5033493;28;20210;-77
2022/06/23 11:54:40;;;;;;;8.68;3.67;;;;;35.60;100928.00;;;;5047060;28;20205;-77
2022/06/23 11:57:29;;;;;;;5.65;3.58;;;;;35.60;100921.00;;;;5044012;28;20215;-77
2022/06/23 12:00:05;;;;;;;7.93;4.20;;;;;35.60;100933.00;;;;5045873;28;20195;-77
2022/06/23 12:02:42;;;;;;;4.43;3.28;;;;;35.70;100931.00;;;;5028427;28;20196;-77
2022/06/23 12:05:23;;;;;;;10.75;4.63;;;;;35.70;100928.00;;;;5028114;28;20203;-77
2022/06/23 12:08:10;;;;;;;4.88;3.63;;;;;35.70;100925.00;;;;5040215;28;20206;-77
2022/06/23 12:10:38;;;;;;;6.45;3.78;;;;;35.80;100919.00;;;;5046975;28;20206;-77
2022/06/23 12:13:07;;;;;;;7.78;3.72;;;;;35.80;100921.00;;;;5045479;28;20226;-77
2022/06/23 12:15:40;;;;;;;5.53;4.70;;;;;35.80;100922.00;;;;5046934;28;20203;-77
2022/06/23 12:18:16;;;;;;;4.55;4.13;;;;;35.80;100916.00;;;;5046386;28;20580;-78
2022/06/23 12:20:51;;;;;;;5.38;3.42;;;;;35.90;100916.00;;;;5045340;28;20572;-77
2022/06/23 12:23:25;;;;;;;4.93;3.47;;;;;35.90;100917.00;;;;5048860;28;20195;-77
2022/06/23 12:26:03;;;;;;;7.60;3.45;;;;;35.90;100917.00;;;;5049842;28;20218;-77
2022/06/23 12:28:38;;;;;;;7.47;4.25;;;;;36.00;100922.00;;;;5049193;28;20195;-77
2022/06/23 12:31:21;;;;;;;6.20;3.83;;;;;36.00;100919.00;;;;5048131;28;20195;-77
2022/06/23 12:34:02;;;;;;;4.85;3.60;;;;;36.00;100912.00;;;;5045298;28;20214;-77
2022/06/23 12:36:38;;;;;;;7.72;3.33;;;;;36.00;100909.00;;;;5049213;28;20195;-77
2022/06/23 12:39:10;;;;;;;5.60;3.50;;;;;36.10;100898.00;;;;5049264;28;20226;-77
2022/06/23 12:41:43;;;;;;;3.78;3.40;;;;;36.10;100894.00;;;;5046754;28;20308;-76
2022/06/23 12:44:26;;;;;;;8.18;2.92;;;;;36.10;100896.00;;;;5046052;28;20223;-76
2022/06/23 12:47:02;;;;;;;3.17;2.53;;;;;36.20;100902.00;;;;5048059;28;20211;-76
2022/06/23 12:49:52;;;;;;;6.47;2.63;;;;;36.10;100890.00;;;;5046638;28;20191;-77
2022/06/23 12:52:34;;;;;;;4.65;2.92;;;;;36.20;100895.00;;;;5049352;28;20252;-77
2022/06/23 12:55:15;;;;;;;5.38;3.10;;;;;36.20;100886.00;;;;5047870;28;20200;-77
2022/06/23 12:58:18;;;;;;;4.50;2.50;;;;;36.10;100885.00;;;;5044431;28;20233;-76
2022/06/23 13:01:00;;;;;;;2.42;2.22;;;;;36.20;100885.00;;;;5043785;28;21057;-77
2022/06/23 13:03:36;;;;;;;2.40;2.10;;;;;36.10;100875.00;;;;5049649;28;20199;-77
2022/06/23 13:06:20;;;;;;;6.53;2.40;;;;;36.10;100886.00;;;;5050496;28;20202;-78
2022/06/23 13:08:55;;;;;;;3.95;2.20;;;;;36.10;100880.00;;;;5049463;28;20222;-77